Terminal Aerodrome Forecast
Issued by NWS Louisville, KY

Home | Current Version | Previous Version | Text Only | Print | Product List | Glossary On
Versions: 1 2 3 4 5 6 7 8 9 10 11 12 13 14
000
FTUS43 KLMK 081728
TAFSDF
TAF
KSDF 081728Z 0818/0924 24005KT P6SM SCT230
     FM090200 22005KT P6SM SKC
     FM091200 20008KT P6SM BKN100
     FM091300 22011KT P6SM -SHSN OVC035
     FM091600 25014KT P6SM -SHSN OVC035
     FM092100 29014KT P6SM BKN040=

USA.gov is the U.S. government's official web portal to all federal, state and local government web resources and services.